Saturday, May 26, 2018, 6:15 AM EDT
Back to Local

KPVC, Provincetown, Provincetown Municipal Airport

Location: Provincetown, MA, United States Lat: 42.067
Local Time: 6:15 AM EDT (10:15 GMT) Lon: -70.217
Time Zone: US/Eastern Elev: 6 ft

Show me the last for .
Show Decoded

2018-05-26 05:56 METAR KPVC 260956Z AUTO 21010KT 9SM CLR 14/13 A2975 RMK AO2 SLP074 T01440133 =
2018-05-26 04:56 METAR KPVC 260856Z AUTO 22012KT 10SM FEW110 15/13 A2974 RMK AO2 SLP071 T01500133
                 55002 =
2018-05-26 03:56 METAR KPVC 260756Z AUTO 22013KT 10SM FEW100 15/13 A2974 RMK AO2 SLP069 T01500133
                 =
2018-05-26 02:56 METAR KPVC 260656Z AUTO 22012KT 10SM FEW110 15/13 A2974 RMK AO2 SLP071 T01500133
                 =
2018-05-26 01:56 METAR KPVC 260556Z AUTO 21011KT 10SM CLR 15/13 A2975 RMK AO2 SLP074 T01500133
                 10172 20150 58008 =
2018-05-26 00:56 METAR KPVC 260456Z AUTO 21010KT 10SM CLR 15/13 A2976 RMK AO2 SLP078 T01500128
                 402440111 =
2018-05-25 23:56 METAR KPVC 260356Z AUTO 21012KT 10SM CLR 15/13 A2977 RMK AO2 SLP079 T01500133 =
2018-05-25 22:56 METAR KPVC 260256Z AUTO 21013KT 10SM CLR 16/13 A2977 RMK AO2 SLP081 T01560133
                 58003 =
2018-05-25 21:56 METAR KPVC 260156Z AUTO 21014KT 10SM CLR 16/13 A2979 RMK AO2 SLP086 T01560133 =
2018-05-25 20:56 METAR KPVC 260056Z AUTO 21014KT 10SM CLR 16/13 A2979 RMK AO2 SLP085 T01610133 =
2018-05-25 19:56 METAR KPVC 252356Z AUTO 22016G21KT 10SM CLR 17/13 A2978 RMK AO2 SLP084 T01720133
                 10244 20172 53002 =
2018-05-25 18:56 METAR KPVC 252256Z AUTO 21018G24KT 10SM CLR 18/13 A2977 RMK AO2 PK WND
                 21026/2240 SLP081 T01830133 =
2018-05-25 17:56 METAR KPVC 252156Z AUTO 21015G22KT 10SM CLR 19/14 A2977 RMK AO2 SLP080 T01890139
                 =
2018-05-25 16:56 METAR KPVC 252056Z AUTO 22021G28KT 10SM CLR 20/13 A2978 RMK AO2 PK WND
                 22028/2051 SLP082 T02000133 56020 =
2018-05-25 15:56 METAR KPVC 251956Z AUTO 21019G24KT 10SM CLR 22/13 A2979 RMK AO2 SLP087 T02170133
                 =
2018-05-25 14:56 METAR KPVC 251856Z AUTO 21018G21KT 10SM CLR 22/13 A2981 RMK AO2 SLP093 T02220133
                 =
2018-05-25 13:56 METAR KPVC 251756Z AUTO 21014G20KT 10SM CLR 23/14 A2984 RMK AO2 SLP103 T02330144
                 10244 20150 56025 =
2018-05-25 12:56 METAR KPVC 251656Z AUTO 22014G21KT 10SM CLR 24/14 A2985 RMK AO2 SLP106 T02440139
                 =
2018-05-25 11:56 METAR KPVC 251556Z AUTO 22013KT 10SM CLR 23/14 A2988 RMK AO2 SLP118 T02330139 =
2018-05-25 10:56 METAR KPVC 251456Z AUTO 23013KT 10SM CLR 21/13 A2991 RMK AO2 SLP128 T02110133
                 58017 =
2018-05-25 09:56 METAR KPVC 251356Z AUTO 23011KT 10SM CLR 19/13 A2993 RMK AO2 SLP135 T01890128 =
2018-05-25 08:56 METAR KPVC 251256Z AUTO 23015KT 10SM CLR 17/12 A2994 RMK AO2 SLP139 T01720117 =
2018-05-25 07:56 METAR KPVC 251156Z AUTO 23010KT 10SM CLR 15/12 A2996 RMK AO2 SLP145 T01500117
                 10150 20111 58006 =
2018-05-25 06:56 METAR KPVC 251056Z AUTO 22011KT 10SM CLR 13/11 A2997 RMK AO2 SLP149 T01330111 =

Support USWX by starting your Amazon purchase here.